Time;durP1;ratioP1;P1;durP2;ratioP2;P2;SDS_P1;SDS_P2;PMS_P1;PMS_P2;Temp;Humidity;BMP_temperature;BMP_pressure;BME280_temperature;BME280_humidity;BME280_pressure;Samples;Min_cycle;Max_cycle;Signal;HPM_P1;HPM_P2
2024/01/30 00:01:34;;;;;;;16.80;10.13;;;;;5.00;99782.00;;;;5059442;28;20048;-68
2024/01/30 00:04:02;;;;;;;18.55;10.27;;;;;4.90;99782.00;;;;5054953;28;20056;-68
2024/01/30 00:06:28;;;;;;;16.50;10.02;;;;;4.80;99782.00;;;;5055303;28;20405;-68
2024/01/30 00:08:55;;;;;;;13.70;9.23;;;;;4.90;99781.00;;;;5055775;28;20127;-68
2024/01/30 00:11:22;;;;;;;17.13;9.98;;;;;4.80;99775.00;;;;5054679;28;20037;-69
2024/01/30 00:13:48;;;;;;;12.82;8.93;;;;;4.80;99777.00;;;;5055203;28;20051;-68
2024/01/30 00:16:22;;;;;;;15.15;9.35;;;;;4.70;99781.00;;;;5053563;28;20506;-68
2024/01/30 00:18:48;;;;;;;16.38;9.60;;;;;4.70;99780.00;;;;5054271;28;20551;-70
2024/01/30 00:21:15;;;;;;;15.15;9.25;;;;;4.60;99788.00;;;;5052913;28;20506;-68
2024/01/30 00:23:42;;;;;;;14.27;8.95;;;;;4.60;99783.00;;;;5053622;28;20124;-69
2024/01/30 00:26:08;;;;;;;16.23;9.00;;;;;4.50;99780.00;;;;5054213;28;20513;-68
2024/01/30 00:28:35;;;;;;;12.88;8.25;;;;;4.40;99775.00;;;;5052706;28;20044;-68
2024/01/30 00:31:01;;;;;;;11.70;8.40;;;;;4.40;99780.00;;;;5053903;28;20063;-68
2024/01/30 00:33:28;;;;;;;15.80;8.98;;;;;4.40;99782.00;;;;5052024;28;20049;-70
2024/01/30 00:35:55;;;;;;;13.30;8.52;;;;;4.40;99776.00;;;;5053837;28;20556;-70
2024/01/30 00:38:22;;;;;;;11.38;8.35;;;;;4.30;99781.00;;;;5053772;28;20048;-68
2024/01/30 00:40:49;;;;;;;12.30;8.73;;;;;4.30;99779.00;;;;5053898;28;20041;-68
2024/01/30 00:43:16;;;;;;;12.30;9.05;;;;;4.30;99782.00;;;;5053712;28;20063;-68
2024/01/30 00:45:46;;;;;;;15.27;8.05;;;;;4.30;99783.00;;;;5035602;28;20525;-68
2024/01/30 00:48:12;;;;;;;15.07;8.02;;;;;4.20;99779.00;;;;5053904;28;20052;-69
2024/01/30 00:50:39;;;;;;;13.68;8.27;;;;;4.20;99791.00;;;;5054788;28;20051;-70
2024/01/30 00:53:05;;;;;;;11.60;8.60;;;;;4.20;99775.00;;;;5055084;28;20565;-68
2024/01/30 00:55:32;;;;;;;15.23;9.35;;;;;4.30;99786.00;;;;5053179;28;20088;-68
2024/01/30 00:57:58;;;;;;;14.65;8.70;;;;;4.20;99781.00;;;;5053649;28;20044;-68
2024/01/30 01:00:28;;;;;;;15.93;9.25;;;;;4.20;99779.00;;;;5053579;28;20041;-68
2024/01/30 01:02:55;;;;;;;13.10;8.57;;;;;4.10;99778.00;;;;5053608;28;20516;-67
2024/01/30 01:05:22;;;;;;;12.75;8.60;;;;;4.10;99783.00;;;;5053082;28;20049;-69
2024/01/30 01:07:49;;;;;;;12.85;8.55;;;;;4.00;99781.00;;;;5055414;28;20037;-67
2024/01/30 01:10:18;;;;;;;11.85;8.23;;;;;4.00;99770.00;;;;5053645;28;20037;-68
2024/01/30 01:12:46;;;;;;;15.05;9.25;;;;;4.00;99777.00;;;;5035617;28;20045;-68
2024/01/30 01:15:12;;;;;;;13.88;8.45;;;;;3.90;99786.00;;;;5052758;28;20494;-67
2024/01/30 01:17:40;;;;;;;12.93;8.25;;;;;3.90;99780.00;;;;5053400;28;20494;-67
2024/01/30 01:20:07;;;;;;;13.50;8.90;;;;;3.80;99774.00;;;;5051987;28;20037;-67
2024/01/30 01:22:34;;;;;;;11.23;8.43;;;;;3.80;99772.00;;;;5053269;28;20080;-67
2024/01/30 01:25:01;;;;;;;10.48;8.10;;;;;3.70;99774.00;;;;5052590;28;20052;-67
2024/01/30 01:27:27;;;;;;;10.98;8.23;;;;;3.70;99769.00;;;;5052780;28;20048;-69
2024/01/30 01:29:54;;;;;;;11.32;8.15;;;;;3.60;99769.00;;;;5052913;28;20044;-67
2024/01/30 01:32:21;;;;;;;11.60;7.90;;;;;3.70;99773.00;;;;5053431;28;20119;-69
2024/01/30 01:34:48;;;;;;;13.18;8.25;;;;;3.80;99766.00;;;;5052497;28;20052;-69
2024/01/30 01:37:14;;;;;;;13.32;8.05;;;;;3.90;99767.00;;;;5053027;28;20485;-68
2024/01/30 01:39:41;;;;;;;10.77;8.00;;;;;4.00;99771.00;;;;5052739;28;20044;-67
2024/01/30 01:42:08;;;;;;;12.65;8.45;;;;;4.00;99761.00;;;;5034769;28;20053;-69
2024/01/30 01:44:34;;;;;;;13.18;8.43;;;;;4.10;99772.00;;;;5052171;28;20502;-67
2024/01/30 01:47:01;;;;;;;14.07;9.15;;;;;4.00;99770.00;;;;5051488;28;20048;-66
2024/01/30 01:49:28;;;;;;;15.18;9.20;;;;;4.00;99776.00;;;;5050943;28;20092;-67
2024/01/30 01:51:59;;;;;;;13.70;9.23;;;;;3.90;99765.00;;;;5034597;28;20555;-67
2024/01/30 01:54:28;;;;;;;14.70;9.32;;;;;3.90;99775.00;;;;5034150;28;20094;-67
2024/01/30 01:56:54;;;;;;;12.98;8.90;;;;;3.90;99773.00;;;;5050976;28;20044;-67
2024/01/30 01:59:23;;;;;;;11.45;8.02;;;;;3.80;99775.00;;;;5052330;28;20494;-66
2024/01/30 02:01:51;;;;;;;15.10;8.40;;;;;3.80;99764.00;;;;5050854;28;20069;-67
2024/01/30 02:04:18;;;;;;;12.70;8.43;;;;;3.80;99765.00;;;;5050268;28;20098;-67
2024/01/30 02:06:46;;;;;;;11.20;8.00;;;;;3.80;99763.00;;;;5052307;28;20051;-67
2024/01/30 02:09:13;;;;;;;13.52;8.05;;;;;3.70;99757.00;;;;5052341;28;20041;-68
2024/01/30 02:11:40;;;;;;;13.18;8.23;;;;;3.70;99768.00;;;;5052509;28;20116;-67
2024/01/30 02:14:07;;;;;;;11.40;8.40;;;;;3.70;99771.00;;;;5050448;28;20471;-69
2024/01/30 02:16:34;;;;;;;11.02;7.38;;;;;3.60;99765.00;;;;5051046;28;20498;-67
2024/01/30 02:19:00;;;;;;;13.48;7.82;;;;;3.60;99765.00;;;;5051083;28;20057;-69
2024/01/30 02:21:27;;;;;;;11.02;7.40;;;;;3.60;99751.00;;;;5052207;28;20065;-68
2024/01/30 02:23:55;;;;;;;11.55;7.10;;;;;3.50;99747.00;;;;5051603;28;20139;-69
2024/01/30 02:26:21;;;;;;;12.02;8.15;;;;;3.40;99756.00;;;;5052281;28;20055;-66
2024/01/30 02:28:48;;;;;;;11.95;7.85;;;;;3.40;99747.00;;;;5052147;28;20127;-67
2024/01/30 02:31:14;;;;;;;12.50;7.43;;;;;3.30;99756.00;;;;5050680;28;20056;-69
2024/01/30 02:33:41;;;;;;;9.73;7.50;;;;;3.30;99756.00;;;;5051641;28;20124;-67
2024/01/30 02:36:08;;;;;;;10.90;7.38;;;;;3.40;99751.00;;;;5052134;28;20045;-67
2024/01/30 02:38:34;;;;;;;11.95;7.45;;;;;3.40;99761.00;;;;5052035;28;20049;-69
2024/01/30 02:41:01;;;;;;;12.18;7.47;;;;;3.30;99759.00;;;;5051840;28;20054;-69
2024/01/30 02:43:27;;;;;;;13.18;8.13;;;;;3.30;99752.00;;;;5051444;28;20056;-67
2024/01/30 02:45:54;;;;;;;11.32;7.50;;;;;3.30;99749.00;;;;5052200;28;20077;-67
2024/01/30 02:48:21;;;;;;;11.55;7.85;;;;;3.30;99756.00;;;;5050723;28;20045;-66
2024/01/30 02:50:47;;;;;;;11.98;7.80;;;;;3.20;99752.00;;;;5051595;28;20084;-67
2024/01/30 02:53:14;;;;;;;10.25;7.35;;;;;3.30;99748.00;;;;5051730;28;20114;-67
2024/01/30 02:55:41;;;;;;;11.18;6.85;;;;;3.40;99748.00;;;;5051509;28;20479;-66
2024/01/30 02:58:07;;;;;;;10.43;7.35;;;;;3.50;99754.00;;;;5050663;28;20050;-67
2024/01/30 03:00:34;;;;;;;11.73;6.80;;;;;3.50;99754.00;;;;5051918;28;20037;-68
2024/01/30 03:03:01;;;;;;;10.60;7.70;;;;;3.40;99750.00;;;;5050790;28;20472;-70
2024/01/30 03:05:28;;;;;;;12.48;7.72;;;;;3.30;99752.00;;;;5051523;28;20076;-70
2024/01/30 03:07:54;;;;;;;11.85;7.88;;;;;3.30;99742.00;;;;5052465;28;20041;-67
2024/01/30 03:10:21;;;;;;;9.75;7.68;;;;;3.20;99749.00;;;;5054270;28;20033;-70
2024/01/30 03:12:48;;;;;;;9.75;7.00;;;;;3.20;99750.00;;;;5056113;28;20521;-68
2024/01/30 03:15:14;;;;;;;11.57;7.57;;;;;3.20;99756.00;;;;5055252;28;20461;-68
2024/01/30 03:17:41;;;;;;;11.48;7.05;;;;;3.30;99756.00;;;;5056551;28;20094;-66
2024/01/30 03:20:09;;;;;;;10.18;6.85;;;;;3.40;99751.00;;;;5055814;28;20033;-66
2024/01/30 03:22:35;;;;;;;9.30;7.28;;;;;3.40;99752.00;;;;5056498;28;20052;-67
2024/01/30 03:25:02;;;;;;;10.40;6.70;;;;;3.40;99757.00;;;;5056247;28;20040;-66
2024/01/30 03:27:29;;;;;;;10.20;6.88;;;;;3.50;99752.00;;;;5057901;28;20049;-69
2024/01/30 03:29:56;;;;;;;10.10;7.38;;;;;3.50;99760.00;;;;5061427;28;20104;-67
2024/01/30 03:32:22;;;;;;;13.13;8.30;;;;;3.50;99749.00;;;;5069606;28;20071;-67
2024/01/30 03:34:49;;;;;;;10.90;7.05;;;;;3.50;99751.00;;;;5071366;28;20045;-69
2024/01/30 03:37:16;;;;;;;10.43;7.15;;;;;3.50;99761.00;;;;5067566;28;20060;-67
2024/01/30 03:39:43;;;;;;;10.95;6.75;;;;;3.40;99742.00;;;;5070603;28;20137;-69
2024/01/30 03:42:09;;;;;;;10.10;6.82;;;;;3.40;99747.00;;;;5069871;28;20033;-68
2024/01/30 03:44:36;;;;;;;9.65;6.93;;;;;3.30;99747.00;;;;5067054;28;20045;-68
2024/01/30 03:47:03;;;;;;;10.80;7.28;;;;;3.30;99753.00;;;;5065696;28;20069;-69
2024/01/30 03:49:29;;;;;;;11.32;6.38;;;;;3.20;99756.00;;;;5065096;28;20113;-69
2024/01/30 03:51:56;;;;;;;12.60;7.20;;;;;3.20;99748.00;;;;5054438;28;20099;-69
2024/01/30 03:54:22;;;;;;;9.88;8.18;;;;;3.10;99746.00;;;;5054416;28;20278;-68
2024/01/30 03:56:49;;;;;;;12.70;7.30;;;;;3.10;99747.00;;;;5054794;28;20040;-68
2024/01/30 03:59:17;;;;;;;9.35;6.30;;;;;3.10;99742.00;;;;5053584;28;20045;-67
2024/01/30 04:01:46;;;;;;;9.43;6.45;;;;;3.10;99750.00;;;;5054851;28;20041;-70
2024/01/30 04:04:13;;;;;;;10.63;7.25;;;;;3.10;99745.00;;;;5052881;28;20051;-70
2024/01/30 04:06:40;;;;;;;9.68;7.50;;;;;3.10;99747.00;;;;5054623;28;20075;-70
2024/01/30 04:09:07;;;;;;;11.30;7.10;;;;;3.10;99741.00;;;;5036788;28;20048;-70
2024/01/30 04:11:33;;;;;;;8.48;6.43;;;;;3.10;99743.00;;;;5054341;28;20041;-69
2024/01/30 04:14:00;;;;;;;9.98;6.95;;;;;3.10;99737.00;;;;5052790;28;20048;-69
2024/01/30 04:16:26;;;;;;;9.98;6.97;;;;;3.10;99742.00;;;;5055390;28;20049;-71
2024/01/30 04:18:53;;;;;;;11.27;6.90;;;;;3.00;99746.00;;;;5054159;28;20073;-69
2024/01/30 04:21:22;;;;;;;10.07;6.60;;;;;3.10;99741.00;;;;5053358;28;20053;-71
2024/01/30 04:23:51;;;;;;;8.35;6.65;;;;;3.10;99742.00;;;;5054137;28;20067;-69
2024/01/30 04:26:17;;;;;;;7.72;6.25;;;;;3.20;99738.00;;;;5052854;28;20045;-69
2024/01/30 04:28:44;;;;;;;9.10;6.63;;;;;3.20;99753.00;;;;5052900;28;20036;-67
2024/01/30 04:31:11;;;;;;;9.07;7.35;;;;;3.10;99742.00;;;;5054096;28;20041;-68
2024/01/30 04:33:38;;;;;;;8.70;6.78;;;;;3.10;99744.00;;;;5053550;28;20125;-68
2024/01/30 04:36:09;;;;;;;8.85;6.97;;;;;3.10;99747.00;;;;5054034;28;20502;-68
2024/01/30 04:38:36;;;;;;;8.52;6.60;;;;;3.10;99748.00;;;;5053045;28;20044;-68
2024/01/30 04:41:02;;;;;;;14.20;7.50;;;;;3.10;99751.00;;;;5053859;28;20060;-70
2024/01/30 04:43:30;;;;;;;11.20;7.18;;;;;3.00;99753.00;;;;5053208;28;20087;-68
2024/01/30 04:45:56;;;;;;;10.88;6.93;;;;;3.00;99752.00;;;;5053780;28;20041;-67
2024/01/30 04:48:23;;;;;;;13.43;7.95;;;;;3.00;99748.00;;;;5052555;28;20413;-69
2024/01/30 04:50:50;;;;;;;9.43;6.95;;;;;3.00;99742.00;;;;5053550;28;20045;-69
2024/01/30 04:53:16;;;;;;;8.48;6.45;;;;;3.00;99751.00;;;;5053521;28;20045;-67
2024/01/30 04:55:43;;;;;;;11.05;7.32;;;;;3.10;99756.00;;;;5051847;28;20530;-67
2024/01/30 04:58:09;;;;;;;12.38;7.35;;;;;3.10;99752.00;;;;5053547;28;20053;-68
2024/01/30 05:00:36;;;;;;;9.82;7.10;;;;;3.00;99756.00;;;;5052405;28;20045;-68
2024/01/30 05:03:03;;;;;;;9.13;6.90;;;;;2.90;99754.00;;;;5053548;28;20068;-69
2024/01/30 05:05:29;;;;;;;8.00;6.40;;;;;2.90;99752.00;;;;5052567;28;20045;-68
2024/01/30 05:07:56;;;;;;;11.40;7.68;;;;;2.90;99758.00;;;;5052360;28;20132;-68
2024/01/30 05:10:22;;;;;;;11.48;7.25;;;;;2.90;99754.00;;;;5053614;28;20116;-68
2024/01/30 05:12:49;;;;;;;14.38;7.07;;;;;2.90;99762.00;;;;5053336;28;20045;-70
2024/01/30 05:15:15;;;;;;;10.63;7.68;;;;;2.90;99763.00;;;;5052893;28;20094;-68
2024/01/30 05:17:42;;;;;;;9.98;7.20;;;;;2.90;99762.00;;;;5053310;28;20068;-71
2024/01/30 05:20:10;;;;;;;12.75;7.60;;;;;2.90;99763.00;;;;5053135;28;20460;-68
2024/01/30 05:22:37;;;;;;;9.80;7.00;;;;;3.00;99766.00;;;;5053171;28;20080;-68
2024/01/30 05:25:05;;;;;;;10.45;7.20;;;;;2.90;99765.00;;;;5052491;28;20048;-68
2024/01/30 05:27:31;;;;;;;10.40;7.40;;;;;2.90;99758.00;;;;5053073;28;20041;-68
2024/01/30 05:29:58;;;;;;;11.18;7.55;;;;;2.90;99761.00;;;;5053086;28;20052;-68
2024/01/30 05:32:24;;;;;;;13.00;8.48;;;;;2.90;99765.00;;;;5052124;28;20037;-71
2024/01/30 05:34:51;;;;;;;10.05;7.35;;;;;2.80;99750.00;;;;5051192;28;20049;-68
2024/01/30 05:37:18;;;;;;;10.10;6.95;;;;;2.80;99765.00;;;;5053066;28;20116;-70
2024/01/30 05:39:44;;;;;;;10.65;7.07;;;;;2.80;99765.00;;;;5053057;28;20992;-69
2024/01/30 05:42:11;;;;;;;10.75;7.47;;;;;2.90;99762.00;;;;5052843;28;20132;-68
2024/01/30 05:44:38;;;;;;;10.40;7.55;;;;;2.80;99768.00;;;;5050924;28;20049;-69
2024/01/30 05:47:04;;;;;;;11.25;7.60;;;;;2.80;99768.00;;;;5051444;28;20459;-69
2024/01/30 05:49:31;;;;;;;10.00;7.43;;;;;2.80;99773.00;;;;5051322;28;20136;-67
2024/01/30 05:51:57;;;;;;;9.50;7.15;;;;;2.70;99767.00;;;;5052633;28;20467;-67
2024/01/30 05:54:24;;;;;;;12.35;7.82;;;;;2.80;99772.00;;;;5050836;28;20477;-66
2024/01/30 05:56:51;;;;;;;11.63;7.50;;;;;2.80;99762.00;;;;5052439;28;20482;-67
2024/01/30 05:59:18;;;;;;;9.35;7.13;;;;;2.90;99765.00;;;;5052471;28;20075;-68
2024/01/30 06:01:48;;;;;;;11.55;7.70;;;;;2.90;99771.00;;;;5052547;28;20036;-67
2024/01/30 06:04:15;;;;;;;17.33;10.70;;;;;2.90;99767.00;;;;5051973;28;20127;-67
2024/01/30 06:06:41;;;;;;;9.88;7.90;;;;;3.00;99769.00;;;;5051026;28;20048;-70
2024/01/30 06:09:12;;;;;;;17.50;8.48;;;;;3.00;99769.00;;;;5052557;28;20045;-68
2024/01/30 06:11:39;;;;;;;12.13;7.90;;;;;2.90;99766.00;;;;5052533;28;20048;-67
2024/01/30 06:14:06;;;;;;;9.85;7.80;;;;;2.90;99763.00;;;;5052455;28;20045;-68
2024/01/30 06:16:32;;;;;;;12.20;7.18;;;;;2.80;99763.00;;;;5051272;28;20045;-70
2024/01/30 06:19:00;;;;;;;8.98;7.28;;;;;2.80;99769.00;;;;5052960;28;20069;-68
2024/01/30 06:21:26;;;;;;;13.07;7.78;;;;;2.70;99756.00;;;;5051780;28;20053;-70
2024/01/30 06:23:53;;;;;;;11.05;7.72;;;;;2.70;99753.00;;;;5052195;28;20040;-70
2024/01/30 06:26:19;;;;;;;10.55;7.22;;;;;2.70;99751.00;;;;5052377;28;20064;-70
2024/01/30 06:28:46;;;;;;;11.45;8.13;;;;;2.70;99754.00;;;;5051217;28;20056;-70
2024/01/30 06:31:12;;;;;;;9.85;6.97;;;;;2.70;99758.00;;;;5051261;28;20199;-68
2024/01/30 06:33:42;;;;;;;9.18;7.20;;;;;2.70;99746.00;;;;5051893;28;20056;-68
2024/01/30 06:36:09;;;;;;;11.38;7.18;;;;;2.70;99745.00;;;;5051996;28;20095;-68
2024/01/30 06:38:35;;;;;;;11.82;7.07;;;;;2.80;99743.00;;;;5051103;28;20053;-68
2024/01/30 06:41:02;;;;;;;11.43;7.75;;;;;2.70;99752.00;;;;5050827;28;20041;-68
2024/01/30 06:43:28;;;;;;;13.00;7.80;;;;;2.70;99754.00;;;;5053761;28;20124;-70
2024/01/30 06:45:55;;;;;;;13.25;8.13;;;;;2.70;99756.00;;;;5056426;28;20068;-70
2024/01/30 06:48:21;;;;;;;16.38;8.57;;;;;2.80;99758.00;;;;5055174;28;20045;-71
2024/01/30 06:50:49;;;;;;;13.85;8.75;;;;;2.90;99764.00;;;;5056222;28;20040;-69
2024/01/30 06:53:16;;;;;;;12.57;8.48;;;;;2.90;99761.00;;;;5055354;28;20049;-68
2024/01/30 06:55:42;;;;;;;13.77;8.52;;;;;3.00;99770.00;;;;5055890;28;20045;-67
2024/01/30 06:58:09;;;;;;;23.02;14.02;;;;;3.10;99770.00;;;;5056258;28;20037;-68
2024/01/30 07:00:36;;;;;;;14.48;9.05;;;;;3.10;99765.00;;;;5056190;28;20052;-71
2024/01/30 07:03:03;;;;;;;15.20;8.57;;;;;3.20;99779.00;;;;5039168;28;20037;-70
2024/01/30 07:05:29;;;;;;;12.30;7.78;;;;;3.30;99781.00;;;;5054956;28;20045;-71
2024/01/30 07:07:56;;;;;;;14.40;8.25;;;;;3.30;99777.00;;;;5038531;28;20053;-69
2024/01/30 07:10:23;;;;;;;12.50;7.97;;;;;3.20;99769.00;;;;5056335;28;20056;-70
2024/01/30 07:12:50;;;;;;;12.35;8.57;;;;;3.20;99776.00;;;;5056182;28;20051;-68
2024/01/30 07:15:19;;;;;;;10.75;8.13;;;;;3.20;99774.00;;;;5055710;28;20044;-69
2024/01/30 07:17:46;;;;;;;14.73;8.18;;;;;3.20;99781.00;;;;5055998;28;20041;-70
2024/01/30 07:20:13;;;;;;;11.70;8.02;;;;;3.40;99783.00;;;;5055678;28;20115;-70
2024/01/30 07:22:44;;;;;;;13.13;8.52;;;;;3.50;99788.00;;;;5055966;28;20490;-71
2024/01/30 07:25:10;;;;;;;10.43;7.35;;;;;3.60;99788.00;;;;5056120;28;20073;-67
2024/01/30 07:27:37;;;;;;;12.50;7.43;;;;;3.60;99783.00;;;;5054756;28;20147;-67
2024/01/30 07:30:04;;;;;;;11.85;7.18;;;;;3.70;99789.00;;;;5055361;28;20048;-67
2024/01/30 07:32:31;;;;;;;10.43;6.93;;;;;3.80;99783.00;;;;5055344;28;20037;-67
2024/01/30 07:34:58;;;;;;;9.30;6.97;;;;;3.80;99787.00;;;;5054900;28;20037;-69
2024/01/30 07:37:34;;;;;;;10.98;6.65;;;;;3.70;99783.00;;;;5055470;28;20053;-71
2024/01/30 07:40:02;;;;;;;11.20;6.63;;;;;3.80;99791.00;;;;5053932;28;20044;-68
2024/01/30 07:42:29;;;;;;;10.75;7.03;;;;;3.80;99799.00;;;;5053850;28;20618;-68
2024/01/30 07:44:56;;;;;;;10.93;7.63;;;;;3.80;99793.00;;;;5054636;28;20128;-71
2024/01/30 07:47:22;;;;;;;11.63;7.22;;;;;3.80;99796.00;;;;5054998;28;20053;-68
2024/01/30 07:49:49;;;;;;;9.75;7.10;;;;;4.00;99798.00;;;;5055479;28;20044;-68
2024/01/30 07:52:16;;;;;;;11.80;6.82;;;;;4.00;99797.00;;;;5055505;28;20461;-71
2024/01/30 07:54:43;;;;;;;12.52;7.38;;;;;4.10;99792.00;;;;5054500;28;20406;-68
2024/01/30 07:57:09;;;;;;;13.48;7.78;;;;;4.10;99793.00;;;;5055883;28;20053;-67
2024/01/30 07:59:36;;;;;;;13.07;7.05;;;;;4.10;99807.00;;;;5037963;28;20144;-67
2024/01/30 08:02:03;;;;;;;12.30;7.07;;;;;4.10;99797.00;;;;5054405;28;20379;-69
2024/01/30 08:04:29;;;;;;;12.05;7.45;;;;;4.20;99808.00;;;;5053720;28;20059;-68
2024/01/30 08:06:56;;;;;;;17.40;7.90;;;;;4.40;99805.00;;;;5055300;28;20067;-67
2024/01/30 08:09:23;;;;;;;9.27;6.32;;;;;4.50;99807.00;;;;5054887;28;20045;-68
2024/01/30 08:11:49;;;;;;;10.80;7.13;;;;;4.60;99823.00;;;;5054897;28;20533;-68
2024/01/30 08:14:16;;;;;;;10.20;7.25;;;;;4.70;99810.00;;;;5054944;28;20049;-67
2024/01/30 08:16:43;;;;;;;12.75;6.97;;;;;4.70;99818.00;;;;5055492;28;20129;-68
2024/01/30 08:19:09;;;;;;;14.88;7.10;;;;;4.80;99821.00;;;;5054589;28;20094;-68
2024/01/30 08:21:36;;;;;;;11.48;7.85;;;;;4.90;99821.00;;;;5056590;28;20087;-67
2024/01/30 08:24:06;;;;;;;10.48;7.60;;;;;5.00;99824.00;;;;5057158;28;20041;-68
2024/01/30 08:26:33;;;;;;;12.82;7.63;;;;;5.00;99821.00;;;;5064290;28;20405;-67
2024/01/30 08:29:01;;;;;;;11.38;7.38;;;;;4.90;99818.00;;;;5060032;28;20121;-68
2024/01/30 08:31:28;;;;;;;11.13;8.32;;;;;5.00;99831.00;;;;5058065;28;20045;-69
2024/01/30 08:33:54;;;;;;;11.73;7.90;;;;;5.10;99820.00;;;;5074708;28;20049;-68
2024/01/30 08:36:21;;;;;;;11.35;7.65;;;;;5.00;99823.00;;;;5073597;28;20049;-67
2024/01/30 08:38:48;;;;;;;11.02;6.93;;;;;5.10;99824.00;;;;5070287;28;20049;-68
2024/01/30 08:41:14;;;;;;;11.15;7.38;;;;;5.10;99808.00;;;;5073184;28;20032;-67
2024/01/30 08:43:41;;;;;;;13.10;8.05;;;;;5.30;99820.00;;;;5077837;28;20032;-68
2024/01/30 08:46:07;;;;;;;12.35;7.63;;;;;5.30;99820.00;;;;5074341;28;20031;-67
2024/01/30 08:48:36;;;;;;;10.57;6.97;;;;;5.30;99822.00;;;;5073667;28;20550;-67
2024/01/30 08:51:03;;;;;;;14.52;7.55;;;;;5.30;99825.00;;;;5067197;28;20060;-66
2024/01/30 08:53:29;;;;;;;9.63;7.20;;;;;5.30;99822.00;;;;5063994;28;20076;-69
2024/01/30 08:55:58;;;;;;;11.50;7.60;;;;;5.30;99824.00;;;;5067540;28;20094;-67
2024/01/30 08:58:25;;;;;;;11.98;7.93;;;;;5.50;99832.00;;;;5069618;28;20044;-69
2024/01/30 09:00:52;;;;;;;11.05;7.97;;;;;5.50;99826.00;;;;5068059;28;20109;-69
2024/01/30 09:03:19;;;;;;;13.10;7.28;;;;;5.60;99811.00;;;;5066256;28;20045;-69
2024/01/30 09:05:46;;;;;;;13.90;8.05;;;;;5.80;99817.00;;;;5064348;28;20126;-66
2024/01/30 09:08:12;;;;;;;13.20;8.30;;;;;6.00;99809.00;;;;5065322;28;20106;-67
2024/01/30 09:10:39;;;;;;;9.73;7.95;;;;;5.90;99812.00;;;;5046420;28;20508;-68
2024/01/30 09:13:06;;;;;;;14.43;8.95;;;;;6.10;99817.00;;;;5062374;28;20069;-66
2024/01/30 09:15:32;;;;;;;12.70;8.60;;;;;6.20;99812.00;;;;5056311;28;20053;-67
2024/01/30 09:17:59;;;;;;;12.93;8.48;;;;;6.40;99823.00;;;;5056391;28;20128;-68
2024/01/30 09:20:25;;;;;;;16.77;8.63;;;;;6.60;99825.00;;;;5055532;28;20045;-66
2024/01/30 09:22:52;;;;;;;13.55;8.55;;;;;6.70;99837.00;;;;5060295;28;20517;-67
2024/01/30 09:25:19;;;;;;;12.40;8.63;;;;;6.70;99824.00;;;;5055118;28;20045;-69
2024/01/30 09:27:46;;;;;;;12.57;8.45;;;;;6.80;99827.00;;;;5059305;28;20055;-66
2024/01/30 09:30:13;;;;;;;13.52;8.55;;;;;6.90;99829.00;;;;5053302;28;20323;-67
2024/01/30 09:32:40;;;;;;;12.07;8.15;;;;;6.80;99833.00;;;;5053480;28;20601;-69
2024/01/30 09:35:07;;;;;;;12.05;7.85;;;;;6.90;99835.00;;;;5051121;28;20049;-68
2024/01/30 09:37:34;;;;;;;11.82;7.60;;;;;6.80;99835.00;;;;5052923;28;20398;-68
2024/01/30 09:40:01;;;;;;;13.10;9.27;;;;;7.00;99848.00;;;;5052769;28;20056;-66
2024/01/30 09:42:34;;;;;;;12.55;8.93;;;;;7.10;99851.00;;;;5052940;28;20033;-68
2024/01/30 09:45:03;;;;;;;10.13;8.63;;;;;7.20;99845.00;;;;5035906;28;20048;-67
2024/01/30 09:47:44;;;;;;;10.55;7.65;;;;;7.40;99855.00;;;;5051991;28;20052;-69
2024/01/30 09:50:12;;;;;;;11.20;7.68;;;;;7.60;99851.00;;;;5054663;28;20055;-66
2024/01/30 09:52:40;;;;;;;11.63;7.70;;;;;7.80;99857.00;;;;5053218;28;20454;-68
2024/01/30 09:55:07;;;;;;;12.55;7.70;;;;;8.00;99845.00;;;;5052108;28;20064;-68
2024/01/30 09:57:35;;;;;;;13.00;8.05;;;;;8.20;99843.00;;;;5051645;28;20044;-68
2024/01/30 10:00:08;;;;;;;10.00;7.55;;;;;8.50;99847.00;;;;5053112;28;20120;-69
2024/01/30 10:02:39;;;;;;;8.82;6.90;;;;;8.70;99852.00;;;;5053077;28;20572;-68
2024/01/30 10:05:06;;;;;;;10.75;7.57;;;;;8.80;99850.00;;;;5052553;28;20045;-66
2024/01/30 10:07:32;;;;;;;10.05;7.47;;;;;9.00;99852.00;;;;5052482;28;20059;-68
2024/01/30 10:10:00;;;;;;;8.98;7.05;;;;;9.10;99850.00;;;;5052495;28;20351;-66
2024/01/30 10:12:28;;;;;;;11.10;6.82;;;;;9.30;99859.00;;;;5034588;28;20065;-68
2024/01/30 10:14:56;;;;;;;10.52;7.45;;;;;9.30;99855.00;;;;5050513;28;20151;-69
2024/01/30 10:17:25;;;;;;;10.23;7.47;;;;;9.40;99865.00;;;;5052002;28;20120;-66
2024/01/30 10:19:59;;;;;;;10.85;7.50;;;;;9.40;99865.00;;;;5051039;28;20096;-65
2024/01/30 10:22:26;;;;;;;10.82;7.43;;;;;9.50;99868.00;;;;5050898;28;20140;-67
2024/01/30 10:24:53;;;;;;;12.35;7.78;;;;;9.60;99860.00;;;;5050841;28;20049;-66
2024/01/30 10:27:27;;;;;;;13.90;8.82;;;;;9.70;99865.00;;;;5052785;28;20048;-66
2024/01/30 10:29:55;;;;;;;11.95;8.57;;;;;9.80;99877.00;;;;5053892;28;20136;-68
2024/01/30 10:32:21;;;;;;;11.85;8.75;;;;;9.80;99870.00;;;;5052261;28;20554;-66
2024/01/30 10:34:48;;;;;;;11.70;8.70;;;;;9.80;99869.00;;;;5050459;28;20068;-66
2024/01/30 10:37:16;;;;;;;13.93;9.27;;;;;9.80;99876.00;;;;5052120;28;20448;-67
2024/01/30 10:39:44;;;;;;;12.40;8.98;;;;;9.80;99878.00;;;;5052028;28;20052;-67
2024/01/30 10:42:13;;;;;;;13.73;10.02;;;;;9.80;99877.00;;;;5052773;28;20139;-67
2024/01/30 10:44:46;;;;;;;11.77;8.77;;;;;9.80;99882.00;;;;5052625;28;20049;-67
2024/01/30 10:47:18;;;;;;;11.90;8.68;;;;;9.80;99884.00;;;;5051804;28;20091;-67
2024/01/30 10:49:46;;;;;;;13.40;9.43;;;;;9.80;99883.00;;;;5053148;28;20055;-66
2024/01/30 10:52:15;;;;;;;11.60;8.30;;;;;9.80;99883.00;;;;5053230;28;20539;-66
2024/01/30 10:54:44;;;;;;;10.27;8.93;;;;;9.80;99885.00;;;;5052756;28;20489;-66
2024/01/30 10:57:12;;;;;;;12.00;9.05;;;;;9.90;99871.00;;;;5053063;28;20544;-66
2024/01/30 10:59:40;;;;;;;12.93;9.30;;;;;9.90;99862.00;;;;5051559;28;20052;-67
2024/01/30 11:02:08;;;;;;;12.07;8.68;;;;;10.00;99869.00;;;;5052052;28;20051;-65
2024/01/30 11:04:38;;;;;;;13.10;8.73;;;;;10.00;99871.00;;;;5053004;28;20540;-66
2024/01/30 11:07:18;;;;;;;14.15;8.88;;;;;10.10;99861.00;;;;5052966;28;20126;-67
2024/01/30 11:09:52;;;;;;;14.10;8.48;;;;;10.10;99856.00;;;;5052085;28;20041;-67
2024/01/30 11:12:23;;;;;;;13.25;8.80;;;;;10.20;99862.00;;;;5053123;28;20079;-67
2024/01/30 11:15:05;;;;;;;13.93;9.30;;;;;10.30;99848.00;;;;5052585;28;20044;-66
2024/01/30 11:17:48;;;;;;;12.73;8.73;;;;;10.30;99849.00;;;;5052408;28;20044;-66
2024/01/30 11:20:15;;;;;;;13.20;8.68;;;;;10.40;99844.00;;;;5035277;28;20049;-66
2024/01/30 11:22:44;;;;;;;11.30;8.38;;;;;10.50;99845.00;;;;5052109;28;20045;-65
2024/01/30 11:25:13;;;;;;;15.20;8.93;;;;;10.60;99849.00;;;;5052290;28;20041;-65
2024/01/30 11:27:41;;;;;;;13.93;8.85;;;;;10.60;99847.00;;;;5052791;28;20102;-66
2024/01/30 11:30:08;;;;;;;13.43;8.63;;;;;10.60;99852.00;;;;5052777;28;20045;-66
2024/01/30 11:32:35;;;;;;;11.27;8.27;;;;;10.70;99854.00;;;;5056414;28;20041;-66
2024/01/30 11:35:11;;;;;;;13.07;9.05;;;;;10.70;99853.00;;;;5037796;28;20056;-66
2024/01/30 11:37:39;;;;;;;9.18;8.18;;;;;10.80;99849.00;;;;5056053;28;20044;-66
2024/01/30 11:40:06;;;;;;;10.10;8.00;;;;;10.90;99847.00;;;;5055534;28;20048;-66
2024/01/30 11:42:34;;;;;;;12.13;8.77;;;;;10.90;99848.00;;;;5055262;28;20069;-67
2024/01/30 11:45:02;;;;;;;10.68;8.35;;;;;11.00;99840.00;;;;5054904;28;20052;-67
2024/01/30 11:47:29;;;;;;;23.55;16.17;;;;;11.10;99826.00;;;;5055371;28;20045;-67
2024/01/30 11:49:56;;;;;;;17.00;10.30;;;;;11.30;99832.00;;;;5053899;28;20052;-66
2024/01/30 11:52:26;;;;;;;12.48;8.57;;;;;11.40;99838.00;;;;5055235;28;20409;-66
2024/01/30 11:54:54;;;;;;;13.55;8.63;;;;;11.50;99826.00;;;;5054857;28;20124;-66
2024/01/30 11:57:21;;;;;;;11.05;8.57;;;;;11.60;99828.00;;;;5055881;28;20048;-66
2024/01/30 11:59:47;;;;;;;12.30;8.43;;;;;11.80;99822.00;;;;5056034;28;20049;-66
2024/01/30 12:02:17;;;;;;;13.30;8.93;;;;;12.00;99826.00;;;;5056147;28;20049;-66
2024/01/30 12:04:44;;;;;;;10.57;7.50;;;;;12.10;99826.00;;;;5055097;28;20041;-67
2024/01/30 12:07:11;;;;;;;12.13;7.45;;;;;12.20;99831.00;;;;5054899;28;20421;-66
2024/01/30 12:09:38;;;;;;;12.70;7.47;;;;;12.20;99835.00;;;;5055324;28;20071;-65
2024/01/30 12:12:06;;;;;;;11.38;6.65;;;;;12.20;99826.00;;;;5053720;28;20051;-65
2024/01/30 12:14:33;;;;;;;12.00;6.40;;;;;12.20;99829.00;;;;5055487;28;20493;-66
2024/01/30 12:16:59;;;;;;;10.13;6.78;;;;;12.30;99826.00;;;;5055524;28;20098;-66
2024/01/30 12:19:26;;;;;;;12.48;7.28;;;;;12.40;99829.00;;;;5055377;28;20473;-66